Time;durP1;ratioP1;P1;durP2;ratioP2;P2;SDS_P1;SDS_P2;PMS_P1;PMS_P2;Temp;Humidity;BMP_temperature;BMP_pressure;BME280_temperature;BME280_humidity;BME280_pressure;Samples;Min_cycle;Max_cycle;Signal;HPM_P1;HPM_P2
2024/01/23 00:01:35;;;;;;;3.20;1.70;;;7.70;84.20;;;;;;5065746;28;20216;-74
2024/01/23 00:04:02;;;;;;;1.90;0.90;;;7.70;84.50;;;;;;4990480;28;20682;-74
2024/01/23 00:06:29;;;;;;;3.13;1.10;;;7.70;84.70;;;;;;4990458;28;20250;-75
2024/01/23 00:08:58;;;;;;;2.05;1.00;;;7.70;85.00;;;;;;4990431;28;20218;-74
2024/01/23 00:11:25;;;;;;;2.63;1.00;;;7.70;85.20;;;;;;4990339;28;20639;-74
2024/01/23 00:13:52;;;;;;;7.28;1.00;;;7.70;85.30;;;;;;4990394;28;20193;-74
2024/01/23 00:16:19;;;;;;;2.78;0.85;;;7.80;85.40;;;;;;5023936;28;20263;-75
2024/01/23 00:18:49;;;;;;;5.97;1.20;;;7.80;85.30;;;;;;5073007;28;20252;-74
2024/01/23 00:21:16;;;;;;;2.15;0.90;;;7.80;85.30;;;;;;5072500;28;20609;-74
2024/01/23 00:23:43;;;;;;;2.42;1.00;;;7.80;85.50;;;;;;5073374;28;20214;-75
2024/01/23 00:26:10;;;;;;;4.30;1.40;;;7.80;85.60;;;;;;5073000;28;20201;-75
2024/01/23 00:28:37;;;;;;;3.65;0.90;;;7.80;85.40;;;;;;5072805;28;20222;-74
2024/01/23 00:31:06;;;;;;;3.85;1.20;;;7.90;85.10;;;;;;5090635;28;20190;-74
2024/01/23 00:33:32;;;;;;;2.83;0.80;;;7.90;84.90;;;;;;5093420;28;20272;-74
2024/01/23 00:36:01;;;;;;;2.85;1.58;;;7.90;84.70;;;;;;5093467;28;20217;-75
2024/01/23 00:38:28;;;;;;;2.45;0.70;;;7.90;84.60;;;;;;5093444;28;20182;-75
2024/01/23 00:40:55;;;;;;;2.00;0.85;;;7.90;84.80;;;;;;5093511;28;20181;-74
2024/01/23 00:43:22;;;;;;;2.03;0.93;;;7.90;85.40;;;;;;5092001;28;20221;-74
2024/01/23 00:45:49;;;;;;;4.25;0.75;;;8.00;86.50;;;;;;5093288;28;20325;-75
2024/01/23 00:48:16;;;;;;;3.40;1.10;;;8.00;87.30;;;;;;5093478;28;20192;-75
2024/01/23 00:50:43;;;;;;;1.85;0.95;;;8.00;87.70;;;;;;5093213;28;20229;-74
2024/01/23 00:53:15;;;;;;;6.47;1.00;;;8.00;88.20;;;;;;5093324;28;20276;-74
2024/01/23 00:55:42;;;;;;;4.28;1.00;;;8.10;89.00;;;;;;5093557;28;20182;-75
2024/01/23 00:58:11;;;;;;;1.88;1.00;;;8.10;89.50;;;;;;5078082;28;20182;-73
2024/01/23 01:00:39;;;;;;;4.10;0.88;;;8.10;90.20;;;;;;5076307;28;20187;-72
2024/01/23 01:03:06;;;;;;;2.38;0.80;;;8.10;90.30;;;;;;5089522;28;20225;-75
2024/01/23 01:05:33;;;;;;;2.10;0.80;;;8.10;90.30;;;;;;5076679;28;20202;-74
2024/01/23 01:08:00;;;;;;;3.35;1.08;;;8.10;90.20;;;;;;5076111;28;20640;-75
2024/01/23 01:10:29;;;;;;;7.07;2.50;;;8.00;88.80;;;;;;5076043;28;20213;-75
2024/01/23 01:12:57;;;;;;;1.80;0.70;;;8.00;88.30;;;;;;5083947;28;20265;-72
2024/01/23 01:15:24;;;;;;;2.22;1.02;;;8.00;88.10;;;;;;5096527;28;20264;-75
2024/01/23 01:17:51;;;;;;;3.22;1.23;;;8.00;87.50;;;;;;5096857;28;20181;-75
2024/01/23 01:20:18;;;;;;;2.10;0.90;;;7.90;87.40;;;;;;5096204;28;20221;-75
2024/01/23 01:22:45;;;;;;;1.95;0.80;;;7.90;87.10;;;;;;5081167;28;20352;-75
2024/01/23 01:25:12;;;;;;;2.17;1.00;;;7.90;86.80;;;;;;5076017;28;20244;-75
2024/01/23 01:27:40;;;;;;;2.00;0.82;;;7.90;87.10;;;;;;5076116;28;20252;-75
2024/01/23 01:30:08;;;;;;;2.40;1.02;;;7.80;87.00;;;;;;5078071;28;20218;-75
2024/01/23 01:32:35;;;;;;;2.00;0.90;;;7.80;86.90;;;;;;5075935;28;20209;-75
2024/01/23 01:35:02;;;;;;;2.28;1.15;;;7.70;86.50;;;;;;5075608;28;20285;-75
2024/01/23 01:37:29;;;;;;;2.72;0.80;;;7.70;86.40;;;;;;5075585;28;20277;-75
2024/01/23 01:39:56;;;;;;;2.13;0.93;;;7.70;85.80;;;;;;5075840;28;20222;-75
2024/01/23 01:42:23;;;;;;;1.95;0.98;;;7.60;85.50;;;;;;5078390;28;20247;-75
2024/01/23 01:44:53;;;;;;;1.70;0.63;;;7.60;85.50;;;;;;5091407;28;20208;-75
2024/01/23 01:47:20;;;;;;;2.95;1.10;;;7.60;85.50;;;;;;5078075;28;20181;-75
2024/01/23 01:49:47;;;;;;;3.45;0.98;;;7.50;85.40;;;;;;5095905;28;20288;-76
2024/01/23 01:52:15;;;;;;;3.78;1.00;;;7.50;85.80;;;;;;5095848;28;20593;-75
2024/01/23 01:54:43;;;;;;;2.55;0.90;;;7.50;84.80;;;;;;5090518;28;20178;-75
2024/01/23 01:57:11;;;;;;;3.03;1.00;;;7.50;84.90;;;;;;5080732;28;20191;-75
2024/01/23 01:59:38;;;;;;;2.90;1.10;;;7.50;84.60;;;;;;5075361;28;20189;-75
2024/01/23 02:02:07;;;;;;;3.05;1.17;;;7.40;84.30;;;;;;5074804;28;20527;-75
2024/01/23 02:04:34;;;;;;;2.75;1.10;;;7.50;84.10;;;;;;5075357;28;20205;-75
2024/01/23 02:07:02;;;;;;;25.35;13.70;;;7.40;83.90;;;;;;5075180;28;20209;-74
2024/01/23 02:09:32;;;;;;;20.23;11.45;;;7.40;84.20;;;;;;5079173;28;20224;-75
2024/01/23 02:12:04;;;;;;;5.00;2.05;;;7.40;84.10;;;;;;5077064;28;20178;-75
2024/01/23 02:14:31;;;;;;;5.35;3.75;;;7.40;84.20;;;;;;5075127;28;20178;-75
2024/01/23 02:17:01;;;;;;;7.00;4.07;;;7.40;83.90;;;;;;5075051;28;20218;-75
2024/01/23 02:19:33;;;;;;;13.93;7.68;;;7.40;83.50;;;;;;5067513;28;20265;-75
2024/01/23 02:22:01;;;;;;;23.73;13.55;;;7.40;83.20;;;;;;5074315;28;20261;-75
2024/01/23 02:24:30;;;;;;;3.10;1.30;;;7.40;83.20;;;;;;5074801;28;20249;-75
2024/01/23 02:26:57;;;;;;;5.72;3.33;;;7.40;82.60;;;;;;5074875;28;20276;-75
2024/01/23 02:29:24;;;;;;;10.38;5.85;;;7.40;82.10;;;;;;5074137;28;20209;-75
2024/01/23 02:31:51;;;;;;;3.20;1.58;;;7.40;82.10;;;;;;5079097;28;20273;-75
2024/01/23 02:34:21;;;;;;;3.28;1.40;;;7.40;81.80;;;;;;5093863;28;20272;-74
2024/01/23 02:36:47;;;;;;;4.00;1.40;;;7.40;81.60;;;;;;5082157;28;20640;-75
2024/01/23 02:39:14;;;;;;;2.40;0.90;;;7.40;81.70;;;;;;5074574;28;20240;-75
2024/01/23 02:41:43;;;;;;;1.95;0.77;;;7.30;82.00;;;;;;5079506;28;20662;-74
2024/01/23 02:44:10;;;;;;;5.03;2.22;;;7.30;82.20;;;;;;5094700;28;20193;-74
2024/01/23 02:46:37;;;;;;;2.72;1.00;;;7.30;82.30;;;;;;5094691;28;20295;-75
2024/01/23 02:49:03;;;;;;;4.15;2.78;;;7.30;82.20;;;;;;5094680;28;20185;-75
2024/01/23 02:51:30;;;;;;;6.25;2.22;;;7.30;83.00;;;;;;5087322;28;20285;-75
2024/01/23 02:53:57;;;;;;;2.63;1.02;;;7.30;81.80;;;;;;5073986;28;20697;-75
2024/01/23 02:56:24;;;;;;;2.72;0.82;;;7.30;82.00;;;;;;5074267;28;20252;-75
2024/01/23 02:58:52;;;;;;;8.80;2.00;;;7.20;81.90;;;;;;5074131;28;20277;-74
2024/01/23 03:01:19;;;;;;;2.97;1.70;;;7.20;82.10;;;;;;5076312;28;20268;-74
2024/01/23 03:03:46;;;;;;;3.13;1.30;;;7.20;82.20;;;;;;5074365;28;20570;-74
2024/01/23 03:06:13;;;;;;;2.60;1.30;;;7.20;82.10;;;;;;5074106;28;20202;-74
2024/01/23 03:08:40;;;;;;;2.13;0.90;;;7.20;82.20;;;;;;5074301;28;20214;-74
2024/01/23 03:11:08;;;;;;;2.95;1.02;;;7.20;81.70;;;;;;5074342;28;20194;-74
2024/01/23 03:13:35;;;;;;;4.10;1.00;;;7.20;81.50;;;;;;5094293;28;20592;-75
2024/01/23 03:16:04;;;;;;;2.25;0.90;;;7.20;81.60;;;;;;5093794;28;20221;-74
2024/01/23 03:18:31;;;;;;;2.90;1.25;;;7.20;81.50;;;;;;5093821;28;20186;-74
2024/01/23 03:20:58;;;;;;;2.53;1.10;;;7.20;81.20;;;;;;5092301;28;20595;-74
2024/01/23 03:23:25;;;;;;;3.80;1.02;;;7.20;81.60;;;;;;5073917;28;20185;-75
2024/01/23 03:25:52;;;;;;;2.30;0.80;;;7.20;80.80;;;;;;5073736;28;20206;-74
2024/01/23 03:28:19;;;;;;;9.35;3.40;;;7.20;80.90;;;;;;5073492;28;20194;-74
2024/01/23 03:30:46;;;;;;;2.78;1.02;;;7.10;80.60;;;;;;5073766;28;20216;-74
2024/01/23 03:33:14;;;;;;;3.88;0.90;;;7.10;80.50;;;;;;5092125;28;20181;-74
2024/01/23 03:35:41;;;;;;;3.47;0.90;;;7.10;80.70;;;;;;5093641;28;20631;-75
2024/01/23 03:38:09;;;;;;;6.22;1.52;;;7.10;80.60;;;;;;5093978;28;20589;-74
2024/01/23 03:40:36;;;;;;;5.80;2.00;;;7.00;80.30;;;;;;5082197;28;20214;-74
2024/01/23 03:43:03;;;;;;;4.40;1.90;;;7.00;80.40;;;;;;5090271;28;20186;-74
2024/01/23 03:45:30;;;;;;;3.65;1.23;;;7.00;80.20;;;;;;5093970;28;20266;-74
2024/01/23 03:47:57;;;;;;;3.72;1.23;;;7.00;80.00;;;;;;5093857;28;20280;-74
2024/01/23 03:50:26;;;;;;;5.55;1.40;;;7.10;79.30;;;;;;5093917;28;20181;-74
2024/01/23 03:52:53;;;;;;;3.35;1.35;;;7.00;79.20;;;;;;5076843;28;20240;-75
2024/01/23 03:55:19;;;;;;;5.20;1.35;;;7.00;79.20;;;;;;5072970;28;20249;-74
2024/01/23 03:57:47;;;;;;;2.33;1.00;;;7.00;79.10;;;;;;5073591;28;20186;-74
2024/01/23 04:00:15;;;;;;;3.28;1.20;;;7.00;79.00;;;;;;5073486;28;20186;-74
2024/01/23 04:02:42;;;;;;;3.53;1.30;;;7.00;79.00;;;;;;5073073;28;20178;-74
2024/01/23 04:05:10;;;;;;;6.80;1.00;;;7.10;79.00;;;;;;5073375;28;20617;-73
2024/01/23 04:07:39;;;;;;;5.03;1.45;;;7.10;79.00;;;;;;5073593;28;20323;-74
2024/01/23 04:10:11;;;;;;;6.10;1.45;;;7.10;78.80;;;;;;5073978;28;20523;-75
2024/01/23 04:12:38;;;;;;;4.85;2.10;;;7.10;78.40;;;;;;5086853;28;20178;-73
2024/01/23 04:15:06;;;;;;;3.88;0.98;;;7.20;78.70;;;;;;5093853;28;20217;-74
2024/01/23 04:17:33;;;;;;;6.78;2.20;;;7.20;78.80;;;;;;5093699;28;20291;-74
2024/01/23 04:20:00;;;;;;;4.28;1.55;;;7.20;79.00;;;;;;5080433;28;20517;-74
2024/01/23 04:22:27;;;;;;;5.38;1.77;;;7.20;79.70;;;;;;5076909;28;20189;-74
2024/01/23 04:24:55;;;;;;;3.72;1.73;;;7.20;78.70;;;;;;5093145;28;20221;-74
2024/01/23 04:27:22;;;;;;;5.85;1.70;;;7.20;78.90;;;;;;5093488;28;20273;-74
2024/01/23 04:29:49;;;;;;;9.20;4.22;;;7.20;79.00;;;;;;5093720;28;20193;-74
2024/01/23 04:32:18;;;;;;;5.47;2.50;;;7.20;79.20;;;;;;5088237;28;20247;-74
2024/01/23 04:34:45;;;;;;;7.20;2.67;;;7.30;79.60;;;;;;5076895;28;20178;-72
2024/01/23 04:37:12;;;;;;;3.33;1.48;;;7.30;79.80;;;;;;5077184;28;20286;-74
2024/01/23 04:39:39;;;;;;;6.35;1.73;;;7.30;81.00;;;;;;5076670;28;20239;-74
2024/01/23 04:42:08;;;;;;;14.20;5.05;;;7.40;80.40;;;;;;5077663;28;20261;-73
2024/01/23 04:44:34;;;;;;;6.18;2.35;;;7.40;81.50;;;;;;5097412;28;20235;-74
2024/01/23 04:47:01;;;;;;;5.57;1.23;;;7.50;82.50;;;;;;5097153;28;20213;-75
2024/01/23 04:49:28;;;;;;;4.00;1.85;;;7.50;82.50;;;;;;5096804;28;20207;-74
2024/01/23 04:51:55;;;;;;;8.80;2.50;;;7.40;83.00;;;;;;5089738;28;20206;-74
2024/01/23 04:54:23;;;;;;;6.93;1.70;;;7.40;83.70;;;;;;5076570;28;20574;-74
2024/01/23 04:56:50;;;;;;;5.47;1.95;;;7.30;84.20;;;;;;5076682;28;20198;-74
2024/01/23 04:59:19;;;;;;;8.35;1.80;;;7.30;83.20;;;;;;5076596;28;20182;-73
2024/01/23 05:01:46;;;;;;;7.80;2.25;;;7.30;82.70;;;;;;5076123;28;20186;-74
2024/01/23 05:04:13;;;;;;;15.05;5.85;;;7.20;82.60;;;;;;5076141;28;20221;-75
2024/01/23 05:06:40;;;;;;;4.22;1.60;;;7.20;82.80;;;;;;5088787;28;20291;-74
2024/01/23 05:09:07;;;;;;;3.65;1.20;;;7.10;82.70;;;;;;5096405;28;20225;-74
2024/01/23 05:11:34;;;;;;;2.53;1.15;;;7.00;82.80;;;;;;5096684;28;20314;-74
2024/01/23 05:14:01;;;;;;;5.50;1.20;;;7.00;82.90;;;;;;5096660;28;20272;-74
2024/01/23 05:16:29;;;;;;;4.65;1.23;;;7.00;83.00;;;;;;5083341;28;20240;-74
2024/01/23 05:18:56;;;;;;;19.65;10.90;;;6.90;83.00;;;;;;5075946;28;20272;-74
2024/01/23 05:21:23;;;;;;;3.17;1.88;;;6.90;83.00;;;;;;5067673;28;20699;-74
2024/01/23 05:23:50;;;;;;;2.58;1.02;;;6.90;83.00;;;;;;5076121;28;20281;-74
2024/01/23 05:26:17;;;;;;;5.03;1.05;;;6.80;83.20;;;;;;5078358;28;20530;-74
2024/01/23 05:28:44;;;;;;;4.50;1.25;;;6.80;83.30;;;;;;5096349;28;20246;-74
2024/01/23 05:31:11;;;;;;;3.88;1.23;;;6.80;83.60;;;;;;5096342;28;20283;-74
2024/01/23 05:33:39;;;;;;;5.55;1.40;;;6.70;83.40;;;;;;5096372;28;20189;-75
2024/01/23 05:36:07;;;;;;;4.25;1.10;;;6.70;83.50;;;;;;5086488;28;20696;-75
2024/01/23 05:38:34;;;;;;;3.25;0.95;;;6.70;83.30;;;;;;5075865;28;20583;-74
2024/01/23 05:41:01;;;;;;;7.60;1.23;;;6.70;82.90;;;;;;5075562;28;20655;-75
2024/01/23 05:43:28;;;;;;;8.27;1.40;;;6.70;83.40;;;;;;5074663;28;20190;-74
2024/01/23 05:45:55;;;;;;;4.80;1.35;;;6.70;81.80;;;;;;5074792;28;20230;-74
2024/01/23 05:48:22;;;;;;;4.88;1.70;;;6.70;79.80;;;;;;5095521;28;20276;-74
2024/01/23 05:50:50;;;;;;;2.72;1.38;;;6.70;79.50;;;;;;5095985;28;20273;-77
2024/01/23 05:53:17;;;;;;;4.45;1.20;;;6.60;79.10;;;;;;5095936;28;20264;-76
2024/01/23 05:55:44;;;;;;;4.15;1.30;;;6.70;77.70;;;;;;5090146;28;20205;-74
2024/01/23 05:58:11;;;;;;;3.97;1.15;;;6.60;77.70;;;;;;5075193;28;20273;-73
2024/01/23 06:00:39;;;;;;;3.58;1.45;;;6.70;77.60;;;;;;5074763;28;20225;-74
2024/01/23 06:03:06;;;;;;;7.70;1.20;;;6.60;77.50;;;;;;5075470;28;20198;-75
2024/01/23 06:05:33;;;;;;;4.50;1.25;;;6.60;77.80;;;;;;5074546;28;20687;-75
2024/01/23 06:08:01;;;;;;;4.13;1.58;;;6.60;77.80;;;;;;5092429;28;20235;-74
2024/01/23 06:10:28;;;;;;;3.35;1.95;;;6.60;78.10;;;;;;5095236;28;20276;-75
2024/01/23 06:12:55;;;;;;;4.95;1.90;;;6.60;78.50;;;;;;5095563;28;20181;-75
2024/01/23 06:15:22;;;;;;;2.58;1.45;;;6.70;79.10;;;;;;5092905;28;20635;-74
2024/01/23 06:17:49;;;;;;;3.80;1.55;;;6.70;79.10;;;;;;5075100;28;20213;-74
2024/01/23 06:20:17;;;;;;;4.57;2.05;;;6.60;79.60;;;;;;5074697;28;20272;-75
2024/01/23 06:22:43;;;;;;;5.55;2.05;;;6.60;79.90;;;;;;5075053;28;20197;-73
2024/01/23 06:25:15;;;;;;;4.68;1.33;;;6.60;80.10;;;;;;5072918;28;20194;-74
2024/01/23 06:27:42;;;;;;;4.60;1.75;;;6.60;80.10;;;;;;5068319;28;20206;-73
2024/01/23 06:30:11;;;;;;;2.90;1.25;;;6.60;80.20;;;;;;5074026;28;20197;-74
2024/01/23 06:32:39;;;;;;;5.68;1.20;;;6.60;80.00;;;;;;5074163;28;20194;-75
2024/01/23 06:35:12;;;;;;;6.75;1.55;;;6.60;79.90;;;;;;5082653;28;20184;-75
2024/01/23 06:37:39;;;;;;;5.93;1.48;;;6.60;79.90;;;;;;5082104;28;20213;-75
2024/01/23 06:40:08;;;;;;;4.93;1.25;;;6.60;80.20;;;;;;5094776;28;20276;-75
2024/01/23 06:42:38;;;;;;;3.88;1.08;;;6.60;80.40;;;;;;5092364;28;20193;-75
2024/01/23 06:45:07;;;;;;;4.60;1.42;;;6.70;80.00;;;;;;5086425;28;20971;-74
2024/01/23 06:47:38;;;;;;;4.72;1.20;;;6.70;79.90;;;;;;5073627;28;20217;-72
2024/01/23 06:50:06;;;;;;;6.00;1.45;;;6.70;80.00;;;;;;5073616;28;20210;-74
2024/01/23 06:52:33;;;;;;;7.20;1.38;;;6.70;80.10;;;;;;5075479;28;20623;-75
2024/01/23 06:55:00;;;;;;;7.65;2.10;;;6.70;80.10;;;;;;5072815;28;20273;-75
2024/01/23 06:57:28;;;;;;;9.15;3.50;;;6.70;79.90;;;;;;5077135;28;20654;-75
2024/01/23 06:59:59;;;;;;;4.68;1.92;;;6.70;79.90;;;;;;5073618;28;20240;-74
2024/01/23 07:02:26;;;;;;;6.25;1.35;;;6.70;79.90;;;;;;5082017;28;20209;-75
2024/01/23 07:04:54;;;;;;;2.95;1.60;;;6.80;80.00;;;;;;5093964;28;20192;-74
2024/01/23 07:07:21;;;;;;;5.65;1.58;;;6.80;79.80;;;;;;5089061;28;20300;-73
2024/01/23 07:09:48;;;;;;;3.20;1.15;;;6.80;79.90;;;;;;5079792;28;20239;-75
2024/01/23 07:12:16;;;;;;;3.88;1.10;;;6.80;79.80;;;;;;5075326;28;20266;-75
2024/01/23 07:14:43;;;;;;;5.00;1.30;;;6.80;79.90;;;;;;5083260;28;20625;-75
2024/01/23 07:17:12;;;;;;;2.92;1.50;;;6.90;79.60;;;;;;5072086;28;20249;-74
2024/01/23 07:19:39;;;;;;;3.75;1.55;;;6.90;79.70;;;;;;5080984;28;20220;-74
2024/01/23 07:22:06;;;;;;;5.13;1.40;;;6.90;79.60;;;;;;5076213;28;20698;-75
2024/01/23 07:24:33;;;;;;;3.30;1.70;;;7.00;79.30;;;;;;5072036;28;20627;-74
2024/01/23 07:27:02;;;;;;;3.97;1.33;;;7.00;79.30;;;;;;5084018;28;20288;-72
2024/01/23 07:29:31;;;;;;;26.52;2.72;;;7.00;79.20;;;;;;5058735;28;20239;-73
2024/01/23 07:31:58;;;;;;;8.27;1.70;;;7.00;79.30;;;;;;5070269;28;20575;-72
2024/01/23 07:34:27;;;;;;;7.72;1.88;;;7.00;79.00;;;;;;5069853;28;20221;-72
2024/01/23 07:36:55;;;;;;;3.47;1.20;;;7.10;79.00;;;;;;5079569;28;20181;-73
2024/01/23 07:39:23;;;;;;;6.50;1.30;;;7.10;80.10;;;;;;5068473;28;20190;-72
2024/01/23 07:41:53;;;;;;;3.80;1.67;;;7.10;79.40;;;;;;5075867;28;20205;-73
2024/01/23 07:44:20;;;;;;;3.53;1.13;;;7.10;79.50;;;;;;5076337;28;20212;-73
2024/01/23 07:46:48;;;;;;;6.43;1.08;;;7.10;79.80;;;;;;5077232;28;20202;-74
2024/01/23 07:49:16;;;;;;;8.80;2.63;;;7.10;79.70;;;;;;5071167;28;20203;-74
2024/01/23 07:51:48;;;;;;;3.78;1.10;;;7.20;80.00;;;;;;5072476;28;20190;-73
2024/01/23 07:54:15;;;;;;;4.57;1.33;;;7.20;80.00;;;;;;5078422;28;20181;-74
2024/01/23 07:56:42;;;;;;;4.82;1.50;;;7.20;79.70;;;;;;5093213;28;20301;-74
2024/01/23 07:59:12;;;;;;;2.90;1.58;;;7.20;79.80;;;;;;5092983;28;20268;-74
2024/01/23 08:01:38;;;;;;;4.53;1.25;;;7.30;79.80;;;;;;5089532;28;20224;-74
2024/01/23 08:04:05;;;;;;;8.45;1.40;;;7.30;79.00;;;;;;5092827;28;20189;-74
2024/01/23 08:06:32;;;;;;;7.93;1.67;;;7.40;79.00;;;;;;5095667;28;20290;-73
2024/01/23 08:09:01;;;;;;;3.92;1.25;;;7.40;78.60;;;;;;5097596;28;20182;-74
2024/01/23 08:11:27;;;;;;;3.50;2.00;;;7.50;78.30;;;;;;5097267;28;20291;-74
2024/01/23 08:13:54;;;;;;;7.10;1.35;;;7.50;77.90;;;;;;5096967;28;20221;-74
2024/01/23 08:16:21;;;;;;;6.05;1.60;;;7.60;77.70;;;;;;5096655;28;20347;-74
2024/01/23 08:18:48;;;;;;;6.22;1.30;;;7.50;77.90;;;;;;5097061;28;20185;-74
2024/01/23 08:21:17;;;;;;;5.13;1.63;;;7.50;78.10;;;;;;5097100;28;20189;-74
2024/01/23 08:23:44;;;;;;;2.42;1.00;;;7.50;78.20;;;;;;5097283;28;20189;-72
2024/01/23 08:26:13;;;;;;;3.47;1.20;;;7.60;78.10;;;;;;5097074;28;20276;-74
2024/01/23 08:28:42;;;;;;;2.38;1.30;;;7.60;77.70;;;;;;5097292;28;20277;-74
2024/01/23 08:31:09;;;;;;;3.67;1.30;;;7.60;77.70;;;;;;5097053;28;20186;-74
2024/01/23 08:33:36;;;;;;;2.00;0.93;;;7.60;77.40;;;;;;5096878;28;20691;-74
2024/01/23 08:36:03;;;;;;;2.55;1.10;;;7.60;77.80;;;;;;5096293;28;20193;-73
2024/01/23 08:38:31;;;;;;;2.70;1.10;;;7.60;77.20;;;;;;5096555;28;20186;-74
2024/01/23 08:40:58;;;;;;;3.45;1.13;;;7.50;77.30;;;;;;5096210;28;20231;-74
2024/01/23 08:43:26;;;;;;;4.40;1.50;;;7.50;77.50;;;;;;5096089;28;20610;-74
2024/01/23 08:45:53;;;;;;;3.13;1.13;;;7.50;77.50;;;;;;5095651;28;20600;-74
2024/01/23 08:48:22;;;;;;;2.15;1.08;;;7.50;76.90;;;;;;5096276;28;20296;-74
2024/01/23 08:50:50;;;;;;;4.20;1.50;;;7.50;77.00;;;;;;5096260;28;20268;-74
2024/01/23 08:53:18;;;;;;;4.18;1.40;;;7.50;77.10;;;;;;5096716;28;20185;-74
2024/01/23 08:55:46;;;;;;;4.10;1.13;;;7.50;77.00;;;;;;5096690;28;20242;-74
2024/01/23 08:58:17;;;;;;;5.53;2.30;;;7.50;77.10;;;;;;5096458;28;20197;-74
2024/01/23 09:00:48;;;;;;;3.75;1.20;;;7.50;77.30;;;;;;5096881;28;20251;-74
2024/01/23 09:03:15;;;;;;;4.55;1.48;;;7.50;77.40;;;;;;5096160;28;20262;-74
2024/01/23 09:05:42;;;;;;;4.20;1.75;;;7.50;77.30;;;;;;5096182;28;20632;-74
2024/01/23 09:08:09;;;;;;;6.93;1.98;;;7.50;78.30;;;;;;5096520;28;20551;-74
2024/01/23 09:10:36;;;;;;;7.47;2.50;;;7.60;78.00;;;;;;5096224;28;20309;-74
2024/01/23 09:13:04;;;;;;;6.97;2.25;;;7.60;78.00;;;;;;5096339;28;20285;-74
2024/01/23 09:15:31;;;;;;;5.15;1.60;;;7.80;78.10;;;;;;5096039;28;20235;-74
2024/01/23 09:18:00;;;;;;;3.45;1.25;;;7.90;77.60;;;;;;5095338;28;20228;-74
2024/01/23 09:20:27;;;;;;;3.15;1.20;;;8.10;77.80;;;;;;5096327;28;20268;-74
2024/01/23 09:22:54;;;;;;;9.60;1.90;;;8.20;76.70;;;;;;5095740;28;20189;-74
2024/01/23 09:25:21;;;;;;;3.47;1.42;;;8.20;75.60;;;;;;5095422;28;20272;-74
2024/01/23 09:27:48;;;;;;;4.25;1.65;;;8.30;74.70;;;;;;5095526;28;20208;-74
2024/01/23 09:30:17;;;;;;;7.85;1.98;;;8.60;75.10;;;;;;5096130;28;20280;-74
2024/01/23 09:32:48;;;;;;;10.10;1.65;;;8.80;74.20;;;;;;5095531;28;20289;-73
2024/01/23 09:35:17;;;;;;;3.95;1.58;;;9.00;73.60;;;;;;5096031;28;20260;-74
2024/01/23 09:37:44;;;;;;;5.82;1.45;;;9.20;73.40;;;;;;5095857;28;20225;-74
2024/01/23 09:40:12;;;;;;;4.20;1.60;;;9.30;71.60;;;;;;5095529;28;20185;-74
2024/01/23 09:42:40;;;;;;;7.68;1.60;;;9.40;70.00;;;;;;5095454;28;20190;-74
2024/01/23 09:45:15;;;;;;;2.65;1.25;;;9.30;68.90;;;;;;5095307;28;20198;-74
2024/01/23 09:47:43;;;;;;;6.18;1.70;;;9.30;68.40;;;;;;5095988;28;20486;-74
2024/01/23 09:50:12;;;;;;;2.60;1.13;;;9.20;68.10;;;;;;5095759;28;20537;-74
2024/01/23 09:52:44;;;;;;;7.15;1.85;;;9.20;68.40;;;;;;5095327;28;20630;-74
2024/01/23 09:55:11;;;;;;;5.28;2.42;;;9.20;68.30;;;;;;5095829;28;20603;-74
2024/01/23 09:57:40;;;;;;;3.28;1.05;;;9.30;67.00;;;;;;5095803;28;20232;-74
2024/01/23 10:00:11;;;;;;;4.05;1.40;;;9.40;67.10;;;;;;5095611;28;20189;-74
2024/01/23 10:02:39;;;;;;;4.18;1.40;;;9.40;67.10;;;;;;5095698;28;20174;-74
2024/01/23 10:05:09;;;;;;;6.18;1.65;;;9.40;67.00;;;;;;5095172;28;20236;-74
2024/01/23 10:07:36;;;;;;;2.80;1.42;;;9.40;66.30;;;;;;5095218;28;20205;-74
2024/01/23 10:10:13;;;;;;;3.25;1.85;;;9.40;66.50;;;;;;5095073;28;20188;-74
2024/01/23 10:12:41;;;;;;;3.63;1.15;;;9.60;66.70;;;;;;5095189;28;20176;-74
2024/01/23 10:15:11;;;;;;;7.38;1.77;;;9.70;65.00;;;;;;5095453;28;20249;-74
2024/01/23 10:17:38;;;;;;;5.63;1.80;;;9.70;64.80;;;;;;5095266;28;20223;-74
2024/01/23 10:20:08;;;;;;;4.90;1.33;;;9.60;64.60;;;;;;5095234;28;20185;-73
2024/01/23 10:22:35;;;;;;;3.80;1.30;;;9.60;65.40;;;;;;5094720;28;20639;-73
2024/01/23 10:25:05;;;;;;;5.30;1.95;;;9.60;66.40;;;;;;5095071;28;20213;-73
2024/01/23 10:27:32;;;;;;;4.38;1.13;;;9.90;67.80;;;;;;5095122;28;20209;-73
2024/01/23 10:29:59;;;;;;;4.90;2.00;;;10.20;64.60;;;;;;5093829;28;20185;-73
2024/01/23 10:32:29;;;;;;;3.97;1.13;;;10.20;63.60;;;;;;5094761;28;20189;-73
2024/01/23 10:34:56;;;;;;;8.10;2.20;;;10.20;62.70;;;;;;5094558;28;20198;-73
2024/01/23 10:37:23;;;;;;;3.55;1.67;;;10.20;62.90;;;;;;5094489;28;20734;-74
2024/01/23 10:39:52;;;;;;;4.22;1.80;;;10.20;63.00;;;;;;5094783;28;20181;-73
2024/01/23 10:42:21;;;;;;;4.22;1.65;;;10.20;62.60;;;;;;5094416;28;20181;-73
2024/01/23 10:44:50;;;;;;;7.75;1.40;;;10.60;63.60;;;;;;5094707;28;20217;-73
2024/01/23 10:47:17;;;;;;;6.00;1.70;;;11.10;62.60;;;;;;5093952;28;20205;-72
2024/01/23 10:49:45;;;;;;;5.87;1.77;;;11.70;60.90;;;;;;5094277;28;20580;-74
2024/01/23 10:52:16;;;;;;;4.07;1.37;;;12.00;59.10;;;;;;5094076;28;20488;-74
2024/01/23 10:54:45;;;;;;;7.83;1.40;;;12.20;57.60;;;;;;5094247;28;20904;-73
2024/01/23 10:57:20;;;;;;;6.13;1.50;;;12.40;57.20;;;;;;5094480;28;20460;-74
2024/01/23 10:59:49;;;;;;;5.63;1.80;;;12.70;56.20;;;;;;5094519;28;20797;-73
2024/01/23 11:02:26;;;;;;;8.47;1.50;;;12.80;55.60;;;;;;5094238;28;20830;-73
2024/01/23 11:04:54;;;;;;;5.17;1.97;;;12.70;54.90;;;;;;5093758;28;21018;-73
2024/01/23 11:07:26;;;;;;;7.77;1.93;;;12.50;54.10;;;;;;5094713;28;20540;-73
2024/01/23 11:10:03;;;;;;;4.37;1.60;;;12.30;54.50;;;;;;5094365;28;20508;-74
2024/01/23 11:12:39;;;;;;;6.57;2.57;;;12.10;54.40;;;;;;5094278;28;20422;-73
2024/01/23 11:15:16;;;;;;;7.70;1.90;;;11.90;54.00;;;;;;5093903;28;20477;-74
2024/01/23 11:17:43;;;;;;;6.00;2.03;;;11.80;54.20;;;;;;5094252;28;20513;-73
2024/01/23 11:20:17;;;;;;;7.43;2.13;;;11.50;54.70;;;;;;5093811;28;20507;-73
2024/01/23 11:22:44;;;;;;;5.93;1.70;;;11.40;54.60;;;;;;5094083;28;20808;-72
2024/01/23 11:25:11;;;;;;;5.57;1.70;;;11.30;54.80;;;;;;5094148;28;20435;-73
2024/01/23 11:27:40;;;;;;;4.78;1.20;;;11.10;55.50;;;;;;5094250;28;20439;-73
2024/01/23 11:30:13;;;;;;;5.67;1.57;;;10.90;56.30;;;;;;5094104;28;20257;-73
2024/01/23 11:32:40;;;;;;;8.73;2.08;;;10.80;57.10;;;;;;5094225;28;20420;-73
2024/01/23 11:35:11;;;;;;;3.78;1.13;;;10.70;56.90;;;;;;5093889;28;20283;-73
2024/01/23 11:37:56;;;;;;;4.50;1.10;;;10.50;57.70;;;;;;5093474;28;20658;-73
2024/01/23 11:40:33;;;;;;;2.78;1.08;;;10.40;58.80;;;;;;5084996;28;20216;-73
2024/01/23 11:43:07;;;;;;;3.63;1.10;;;10.30;59.30;;;;;;5093800;28;20693;-73
2024/01/23 11:45:41;;;;;;;3.35;0.98;;;10.30;60.50;;;;;;5093855;28;20269;-73
2024/01/23 11:48:09;;;;;;;5.57;1.20;;;10.40;62.80;;;;;;5093421;28;20654;-73
2024/01/23 11:50:38;;;;;;;2.67;0.90;;;10.50;61.80;;;;;;5093778;28;20273;-73
2024/01/23 11:53:05;;;;;;;2.75;0.90;;;10.50;62.00;;;;;;5093074;28;20189;-73
2024/01/23 11:55:32;;;;;;;5.20;1.40;;;10.50;62.30;;;;;;5093774;28;20234;-73
2024/01/23 11:58:00;;;;;;;2.33;1.05;;;10.40;62.20;;;;;;5093569;28;20240;-74
2024/01/23 12:00:27;;;;;;;6.40;1.50;;;10.60;62.30;;;;;;5093567;28;20224;-73
2024/01/23 12:02:57;;;;;;;5.20;1.17;;;11.00;62.60;;;;;;5093811;28;20182;-72
2024/01/23 12:05:24;;;;;;;6.53;1.53;;;11.50;61.30;;;;;;5093844;28;20439;-73
2024/01/23 12:07:52;;;;;;;4.53;1.10;;;11.70;59.50;;;;;;5093231;28;20439;-73
2024/01/23 12:10:20;;;;;;;3.80;1.60;;;11.90;58.80;;;;;;5093500;28;20439;-73
2024/01/23 12:12:51;;;;;;;9.07;1.73;;;12.00;57.70;;;;;;5093568;28;20428;-73
2024/01/23 12:15:18;;;;;;;3.80;1.43;;;12.20;57.80;;;;;;5093848;28;20609;-72
2024/01/23 12:17:49;;;;;;;3.33;1.50;;;12.50;57.80;;;;;;5093410;28;20513;-73
2024/01/23 12:20:18;;;;;;;3.40;1.00;;;12.80;57.20;;;;;;5093314;28;20959;-73
2024/01/23 12:22:45;;;;;;;4.03;1.13;;;13.20;57.30;;;;;;5093089;28;20467;-73
2024/01/23 12:25:13;;;;;;;4.90;1.10;;;13.60;55.80;;;;;;5093457;28;20509;-73
2024/01/23 12:27:42;;;;;;;3.10;1.13;;;13.90;53.50;;;;;;5093127;28;20930;-73
2024/01/23 12:30:13;;;;;;;4.10;1.47;;;13.90;52.10;;;;;;5093316;28;20435;-73
2024/01/23 12:32:40;;;;;;;3.10;1.50;;;14.20;52.30;;;;;;5093397;28;20769;-73
2024/01/23 12:35:10;;;;;;;4.10;1.10;;;14.60;51.50;;;;;;5093371;28;20435;-73
2024/01/23 12:37:40;;;;;;;2.47;0.90;;;14.80;50.10;;;;;;5093118;28;20522;-73
2024/01/23 12:40:10;;;;;;;4.80;1.50;;;14.90;49.70;;;;;;5093846;28;20748;-73
2024/01/23 12:42:41;;;;;;;3.80;1.20;;;15.10;49.20;;;;;;5092936;28;20509;-73
2024/01/23 12:45:11;;;;;;;5.23;1.70;;;15.30;48.40;;;;;;5093287;28;20877;-73
2024/01/23 12:47:41;;;;;;;5.07;1.07;;;15.50;48.00;;;;;;5093265;28;20480;-72
2024/01/23 12:50:16;;;;;;;3.57;1.37;;;15.60;47.10;;;;;;5093133;28;20469;-73
2024/01/23 12:52:45;;;;;;;4.43;1.37;;;15.50;46.80;;;;;;5094196;28;20434;-73
2024/01/23 12:55:13;;;;;;;3.50;1.17;;;15.20;46.00;;;;;;5097111;28;20430;-73
2024/01/23 12:57:42;;;;;;;6.67;1.97;;;14.80;45.40;;;;;;5096857;28;20496;-73
2024/01/23 13:00:11;;;;;;;3.90;1.27;;;14.30;46.40;;;;;;5096929;28;20507;-73